createdAt,value
2023-01-28T00:00:11.948Z,-0.10
2023-01-28T00:03:15.954Z,-0.10
2023-01-28T00:06:19.931Z,0.30
2023-01-28T00:09:22.911Z,-0.30
2023-01-28T00:12:27.514Z,-0.10
2023-01-28T00:27:47.408Z,0.00
2023-01-28T00:43:06.453Z,-0.20
2023-01-28T00:46:11.924Z,-0.80
2023-01-28T00:49:15.337Z,-0.20
2023-01-28T00:58:27.889Z,-0.40
2023-01-28T01:01:31.263Z,-3.60
2023-01-28T01:10:45.552Z,-3.20
2023-01-28T01:13:56.707Z,-0.20
2023-01-28T01:23:07.086Z,-0.20
2023-01-28T01:29:17.071Z,-2.10
2023-01-28T01:32:20.483Z,-2.90
2023-01-28T01:35:23.539Z,0.00
2023-01-28T01:41:32.588Z,-0.20
2023-01-28T01:44:59.853Z,-0.20
2023-01-28T01:48:10.874Z,-0.20
2023-01-28T01:51:19.031Z,-0.20
2023-01-28T01:54:26.484Z,-3.40
2023-01-28T01:57:35.685Z,0.10
2023-01-28T02:00:41.338Z,-0.10
2023-01-28T02:03:54.795Z,-0.10
2023-01-28T02:07:01.516Z,0.30
2023-01-28T02:10:08.146Z,-0.10
2023-01-28T02:13:11.231Z,0.00
2023-01-28T02:16:15.967Z,0.00
2023-01-28T02:19:27.189Z,-2.10
2023-01-28T02:23:14.432Z,0.00
2023-01-28T02:26:51.312Z,0.20
2023-01-28T02:30:04.462Z,0.10
2023-01-28T02:33:14.960Z,0.10
2023-01-28T02:39:37.168Z,0.20
2023-01-28T02:42:43.437Z,0.20
2023-01-28T02:46:01.894Z,0.10
2023-01-28T02:49:10.204Z,0.10
2023-01-28T02:52:56.939Z,0.10
2023-01-28T02:56:13.820Z,1.30
2023-01-28T02:59:36.685Z,1.70
2023-01-28T03:02:54.461Z,0.10
2023-01-28T03:06:07.821Z,0.00
2023-01-28T03:09:26.197Z,0.00
2023-01-28T03:12:49.671Z,4.00
2023-01-28T03:16:11.597Z,-0.20
2023-01-28T03:23:07.756Z,1.10
2023-01-28T03:26:32.945Z,0.00
2023-01-28T03:29:56.294Z,0.00
2023-01-28T03:36:41.651Z,0.00
2023-01-28T03:48:55.908Z,0.10
2023-01-28T03:52:00.252Z,2.40
2023-01-28T03:58:18.120Z,0.00
2023-01-28T04:01:22.527Z,-0.10
2023-01-28T04:04:25.871Z,-2.80
2023-01-28T04:07:30.246Z,-0.10
2023-01-28T04:10:33.821Z,0.00
2023-01-28T04:13:37.639Z,-0.20
2023-01-28T04:16:41.397Z,1.60
2023-01-28T04:22:49.300Z,-0.10
2023-01-28T04:25:53.249Z,-3.10
2023-01-28T04:38:09.274Z,-0.20
2023-01-28T04:47:20.593Z,-0.50
2023-01-28T04:53:28.529Z,-0.20
2023-01-28T05:08:47.644Z,-0.10
2023-01-28T05:11:50.734Z,0.00
2023-01-28T05:24:06.806Z,0.10
2023-01-28T05:27:11.028Z,0.20
2023-01-28T05:54:46.471Z,0.50
2023-01-28T06:00:56.706Z,0.60
2023-01-28T06:10:10.883Z,-1.40
2023-01-28T06:16:18.492Z,1.50
2023-01-28T06:19:22.807Z,0.80
2023-01-28T06:22:26.441Z,0.70
2023-01-28T06:28:34.702Z,-1.70
2023-01-28T06:31:37.934Z,0.70
2023-01-28T06:37:45.542Z,1.30
2023-01-28T06:40:55.895Z,0.70
2023-01-28T06:43:58.892Z,0.70
2023-01-28T06:56:14.562Z,-2.50
2023-01-28T07:05:28.146Z,-1.40
2023-01-28T07:11:36.529Z,0.80
2023-01-28T07:14:39.570Z,1.20
2023-01-28T07:23:50.193Z,1.10
2023-01-28T07:26:55.112Z,1.30
2023-01-28T07:29:58.744Z,1.30
2023-01-28T07:42:14.617Z,2.00
2023-01-28T07:45:18.300Z,3.80
2023-01-28T07:48:21.433Z,2.50
2023-01-28T07:57:33.212Z,0.30
2023-01-28T08:00:39.437Z,2.60
2023-01-28T08:03:42.904Z,2.70
2023-01-28T08:06:46.271Z,0.50
2023-01-28T08:09:49.992Z,2.80
2023-01-28T08:12:56.239Z,3.00
2023-01-28T08:15:59.568Z,3.10
2023-01-28T08:19:03.565Z,3.20
2023-01-28T08:22:06.537Z,3.20
2023-01-28T08:25:10.330Z,3.30
2023-01-28T08:28:17.080Z,1.30
2023-01-28T08:31:20.525Z,2.90
2023-01-28T08:34:25.397Z,3.40
2023-01-28T08:37:29.983Z,3.50
2023-01-28T08:40:33.660Z,5.30
2023-01-28T08:43:38.137Z,3.60
2023-01-28T08:46:41.312Z,4.40
2023-01-28T08:49:44.323Z,2.80
2023-01-28T08:52:50.981Z,3.70
2023-01-28T08:55:56.386Z,3.80
2023-01-28T08:59:02.146Z,3.90
2023-01-28T09:02:05.419Z,4.00
2023-01-28T09:05:10.804Z,5.50
2023-01-28T09:08:16.246Z,4.60
2023-01-28T09:11:19.603Z,4.70
2023-01-28T09:14:24.103Z,4.10
2023-01-28T09:17:29.272Z,4.60
2023-01-28T09:20:33.342Z,4.10
2023-01-28T09:23:37.536Z,4.10
2023-01-28T09:26:40.655Z,5.80
2023-01-28T09:29:45.240Z,4.20
2023-01-28T09:32:52.295Z,4.20
2023-01-28T09:45:34.866Z,4.50
2023-01-28T09:48:43.933Z,4.40
2023-01-28T09:51:54.933Z,4.50
2023-01-28T09:55:05.974Z,4.50
2023-01-28T09:58:15.478Z,6.40
2023-01-28T10:01:40.922Z,4.60
2023-01-28T10:04:59.807Z,4.60
2023-01-28T10:08:20.591Z,4.70
2023-01-28T10:11:40.674Z,4.70
2023-01-28T10:15:05.991Z,4.80
2023-01-28T10:18:17.977Z,6.20
2023-01-28T10:21:28.391Z,4.80
2023-01-28T10:24:36.910Z,4.80
2023-01-28T10:27:40.105Z,4.80
2023-01-28T10:30:46.342Z,4.90
2023-01-28T10:33:51.079Z,4.80
2023-01-28T10:36:56.997Z,6.20
2023-01-28T10:40:03.072Z,4.80
2023-01-28T10:43:08.666Z,5.00
2023-01-28T10:46:20.188Z,5.00
2023-01-28T10:49:30.472Z,5.00
2023-01-28T10:52:35.054Z,5.10
2023-01-28T10:55:52.981Z,5.30
2023-01-28T10:59:03.715Z,5.40
2023-01-28T11:02:25.398Z,7.20
2023-01-28T11:05:31.994Z,6.90
2023-01-28T11:08:45.637Z,5.40
2023-01-28T11:11:48.812Z,6.60
2023-01-28T11:14:53.792Z,5.10
2023-01-28T11:18:02.103Z,5.80
2023-01-28T11:21:16.946Z,5.80
2023-01-28T11:24:26.964Z,5.00
2023-01-28T11:27:34.569Z,5.80
2023-01-28T11:30:41.513Z,6.40
2023-01-28T11:33:50.850Z,5.90
2023-01-28T11:37:03.560Z,5.90
2023-01-28T11:40:22.183Z,5.90
2023-01-28T11:43:28.541Z,6.00
2023-01-28T11:46:56.037Z,6.00
2023-01-28T11:50:24.310Z,6.00
2023-01-28T11:54:02.079Z,6.10
2023-01-28T11:57:23.467Z,6.10
2023-01-28T12:00:44.585Z,7.50
2023-01-28T12:04:18.419Z,8.10
2023-01-28T12:07:38.354Z,5.90
2023-01-28T12:10:58.291Z,7.70
2023-01-28T12:14:22.398Z,8.10
2023-01-28T12:17:43.673Z,6.50
2023-01-28T12:20:56.584Z,5.70
2023-01-28T12:24:19.352Z,6.60
2023-01-28T12:27:44.239Z,8.40
2023-01-28T12:31:13.548Z,6.70
2023-01-28T12:34:49.621Z,6.70
2023-01-28T12:38:04.514Z,6.80
2023-01-28T12:41:16.127Z,5.90
2023-01-28T12:44:30.153Z,6.80
2023-01-28T12:47:39.946Z,6.80
2023-01-28T12:50:49.007Z,6.80
2023-01-28T12:54:01.393Z,6.80
2023-01-28T12:57:05.808Z,8.40
2023-01-28T13:00:26.325Z,6.70
2023-01-28T13:03:39.303Z,6.70
2023-01-28T13:06:51.921Z,6.60
2023-01-28T13:10:08.039Z,6.60
2023-01-28T13:13:19.973Z,6.60
2023-01-28T13:16:36.871Z,6.60
2023-01-28T13:19:43.124Z,6.10
2023-01-28T13:22:46.582Z,6.50
2023-01-28T13:25:51.074Z,8.70
2023-01-28T13:29:07.680Z,8.30
2023-01-28T13:32:36.859Z,7.20
2023-01-28T13:35:43.878Z,6.50
2023-01-28T13:38:48.114Z,6.60
2023-01-28T13:41:54.393Z,6.60
2023-01-28T13:45:09.809Z,6.60
2023-01-28T13:48:30.798Z,4.60
2023-01-28T13:51:38.739Z,6.60
2023-01-28T13:54:47.065Z,6.60
2023-01-28T13:58:42.111Z,6.60
2023-01-28T14:02:29.746Z,5.10
2023-01-28T14:06:29.964Z,6.70
2023-01-28T14:10:01.456Z,6.70
2023-01-28T14:13:34.945Z,6.70
2023-01-28T14:16:52.251Z,6.70
2023-01-28T14:19:58.370Z,6.70
2023-01-28T14:23:05.655Z,5.50
2023-01-28T14:26:33.266Z,6.70
2023-01-28T14:30:04.788Z,6.70
2023-01-28T14:33:13.132Z,6.70
2023-01-28T14:36:17.822Z,6.70
2023-01-28T14:39:28.102Z,6.70
2023-01-28T14:42:40.668Z,6.70
2023-01-28T14:46:11.528Z,6.70
2023-01-28T14:49:33.944Z,6.60
2023-01-28T14:53:17.855Z,6.60
2023-01-28T14:56:37.546Z,6.60
2023-01-28T14:59:46.352Z,6.60
2023-01-28T15:02:50.129Z,6.60
2023-01-28T15:06:05.688Z,6.50
2023-01-28T15:09:14.827Z,6.50
2023-01-28T15:12:22.750Z,6.50
2023-01-28T15:15:34.638Z,6.50
2023-01-28T15:18:45.787Z,6.50
2023-01-28T15:21:55.427Z,7.50
2023-01-28T15:24:58.954Z,5.50
2023-01-28T15:28:03.515Z,7.00
2023-01-28T15:31:22.547Z,6.50
2023-01-28T15:34:30.177Z,6.40
2023-01-28T15:37:33.631Z,6.50
2023-01-28T15:40:44.006Z,7.00
2023-01-28T15:43:53.173Z,7.40
2023-01-28T15:46:57.771Z,6.40
2023-01-28T15:50:06.942Z,8.60
2023-01-28T15:53:12.066Z,6.30
2023-01-28T15:56:16.819Z,6.40
2023-01-28T15:59:31.127Z,6.30
2023-01-28T16:02:34.999Z,7.60
2023-01-28T16:05:42.466Z,4.00
2023-01-28T16:08:54.168Z,5.30
2023-01-28T16:12:04.833Z,6.40
2023-01-28T16:15:21.446Z,6.30
2023-01-28T16:18:39.006Z,6.00
2023-01-28T16:21:47.620Z,6.40
2023-01-28T16:24:54.763Z,8.20
2023-01-28T16:27:58.960Z,8.90
2023-01-28T16:31:03.740Z,7.30
2023-01-28T16:40:16.675Z,6.40
2023-01-28T16:46:28.950Z,6.40
2023-01-28T16:49:34.179Z,8.10
2023-01-28T16:52:37.678Z,6.40
2023-01-28T16:55:42.110Z,6.40
2023-01-28T17:01:51.569Z,5.90
2023-01-28T17:04:56.900Z,6.50
2023-01-28T17:08:00.212Z,6.50
2023-01-28T17:11:03.334Z,6.50
2023-01-28T17:14:07.214Z,8.60
2023-01-28T17:17:12.019Z,6.60
2023-01-28T17:20:14.914Z,6.60
2023-01-28T17:23:22.855Z,6.60
2023-01-28T17:26:26.342Z,6.60
2023-01-28T17:29:29.475Z,5.00
2023-01-28T17:32:33.937Z,6.70
2023-01-28T17:44:47.993Z,6.80
2023-01-28T17:47:52.481Z,6.70
2023-01-28T17:50:58.173Z,7.40
2023-01-28T17:54:01.461Z,6.70
2023-01-28T17:57:04.885Z,6.30
2023-01-28T18:00:11.750Z,7.00
2023-01-28T18:03:17.060Z,6.70
2023-01-28T18:18:36.288Z,6.90
2023-01-28T18:21:52.785Z,7.60
2023-01-28T18:24:56.731Z,6.80
2023-01-28T18:27:59.845Z,6.80
2023-01-28T18:31:07.134Z,6.90
2023-01-28T18:34:11.734Z,6.90
2023-01-28T18:37:14.888Z,7.40
2023-01-28T18:40:19.043Z,8.00
2023-01-28T18:43:22.481Z,6.90
2023-01-28T18:46:25.687Z,8.20
2023-01-28T18:49:30.087Z,7.00
2023-01-28T18:52:33.153Z,8.70
2023-01-28T18:55:36.449Z,7.00
2023-01-28T19:01:44.137Z,6.90
2023-01-28T19:04:48.687Z,4.40
2023-01-28T19:07:52.125Z,7.10
2023-01-28T19:10:58.042Z,7.30
2023-01-28T19:14:01.699Z,9.90
2023-01-28T19:20:14.165Z,7.30
2023-01-28T19:23:17.275Z,7.10
2023-01-28T19:26:22.562Z,7.20
2023-01-28T19:29:28.423Z,7.20
2023-01-28T19:35:37.058Z,6.80
2023-01-28T19:38:41.053Z,7.30
2023-01-28T19:50:56.676Z,7.50
2023-01-28T20:06:18.546Z,7.40
2023-01-28T20:36:56.323Z,7.10
2023-01-28T20:39:59.518Z,7.10
2023-01-28T21:07:42.016Z,7.10
2023-01-28T21:10:45.727Z,7.00
2023-01-28T21:13:49.787Z,7.10
2023-01-28T21:16:53.408Z,7.10
2023-01-28T21:23:02.384Z,7.00
2023-01-28T21:26:07.122Z,7.00
2023-01-28T21:38:23.683Z,7.20
2023-01-28T21:41:27.108Z,7.20
2023-01-28T21:44:30.194Z,7.10
2023-01-28T21:47:33.323Z,7.10
2023-01-28T21:50:56.365Z,7.10
2023-01-28T21:54:00.777Z,7.10
2023-01-28T21:57:03.833Z,7.30
2023-01-28T22:00:09.606Z,7.10
2023-01-28T22:03:12.676Z,7.10
2023-01-28T22:06:16.113Z,5.00
2023-01-28T22:09:20.725Z,7.20
2023-01-28T22:12:24.146Z,7.20
2023-01-28T22:15:27.340Z,7.80
2023-01-28T22:18:31.290Z,7.20
2023-01-28T22:21:40.790Z,7.20
2023-01-28T22:24:45.768Z,7.20
2023-01-28T22:27:49.632Z,7.20
2023-01-28T22:30:53.617Z,8.40
2023-01-28T22:33:56.704Z,7.20
2023-01-28T22:37:00.019Z,7.20
2023-01-28T22:40:05.195Z,7.20
2023-01-28T22:43:08.473Z,8.50
2023-01-28T22:46:12.118Z,9.10
2023-01-28T22:49:15.748Z,7.20
2023-01-28T22:52:18.860Z,7.20
2023-01-28T22:55:24.206Z,9.20
2023-01-28T22:58:28.857Z,7.20
2023-01-28T23:01:33.653Z,8.00
2023-01-28T23:04:40.650Z,7.10
2023-01-28T23:07:44.071Z,7.10
2023-01-28T23:10:51.586Z,7.10
2023-01-28T23:14:15.431Z,7.20
2023-01-28T23:17:36.340Z,7.20
2023-01-28T23:20:58.178Z,7.00
2023-01-28T23:24:19.720Z,7.00
2023-01-28T23:27:25.365Z,7.00
2023-01-28T23:30:28.639Z,7.00
2023-01-28T23:33:31.940Z,7.00
2023-01-28T23:36:35.922Z,9.20
2023-01-28T23:39:38.964Z,8.50
2023-01-28T23:42:44.685Z,7.10
2023-01-28T23:45:48.223Z,7.10
2023-01-28T23:48:51.704Z,7.10
2023-01-28T23:51:55.162Z,7.10
2023-01-28T23:54:58.165Z,6.70
2023-01-28T23:58:02.548Z,7.00
